.
WxDataArchive / Data Records for 2007-03-22
2007-03-21 March 2007 2007-03-23

Data Records for Thursday, 22 March 2007

Time	Temp	Chill	HIndex	Humid	Dewpt	 Wind 	HiWind	WindDir	Rain 	Barom 
-----	----	-----	------	-----	-----	------	------	-------	-----	----- 
00:00	60.4	60.4	60.4	61	46.9	1	7	248	0.00	29.994 
00:05	60.2	60.2	60.2	61	46.7	1	4	270	0.00	29.994 
00:10	60.2	60.2	60.2	62	47.1	2	9	248	0.00	29.994 
00:15	60.4	60.4	60.4	62	47.3	2	4	270	0.00	29.982 
00:20	60.4	60.4	60.4	61	46.9	1	4	248	0.00	29.982 
00:25	60.4	60.4	60.4	61	46.9	2	10	248	0.00	29.982 
00:30	60.2	60.2	60.2	62	47.1	2	5	248	0.00	29.971 
00:35	60.1	60.1	60.1	62	47.0	2	7	270	0.00	29.971 
00:40	59.9	59.9	59.9	62	46.8	2	5	248	0.00	29.971 
00:45	59.9	59.9	59.9	62	46.8	2	5	248	0.00	29.965 
00:50	59.6	59.6	59.6	62	46.6	2	6	248	0.00	29.965 
00:55	59.5	59.5	59.5	63	46.9	2	7	248	0.00	29.965 
01:00	59.3	59.3	59.3	63	46.7	2	6	248	0.00	29.958 
01:05	59.6	59.6	59.6	63	47.0	2	6	248	0.00	29.958 
01:10	59.8	59.8	59.8	62	46.8	2	7	248	0.00	29.958 
01:15	60.1	60.1	60.1	62	47.0	2	7	248	0.00	29.943 
01:20	60.1	60.1	60.1	62	47.0	3	9	248	0.00	29.943 
01:25	60.2	60.2	60.2	61	46.7	3	9	248	0.00	29.943 
01:30	60.4	60.4	60.4	61	46.9	3	7	248	0.00	29.943 
01:35	60.7	60.7	60.7	60	46.7	4	13	248	0.00	29.943 
01:40	61.0	61.0	61.0	59	46.6	4	11	248	0.00	29.943 
01:45	61.3	61.3	61.3	59	46.8	4	11	248	0.00	29.936 
01:50	61.3	61.3	61.3	58	46.4	4	13	248	0.00	29.936 
01:55	61.6	61.6	61.6	58	46.7	5	11	248	0.00	29.936 
02:00	62.0	62.0	62.0	57	46.6	5	13	248	0.00	29.938 
02:05	62.1	62.1	62.1	57	46.7	5	11	248	0.00	29.938 
02:10	62.1	62.1	62.1	57	46.7	6	11	270	0.00	29.938 
02:15	62.1	62.1	62.1	57	46.7	4	12	248	0.00	29.924 
02:20	62.4	62.4	62.4	56	46.5	6	14	270	0.00	29.924 
02:25	62.3	62.3	62.3	56	46.4	4	14	248	0.00	29.924 
02:30	62.3	62.3	62.3	56	46.4	5	13	225	0.00	29.917 
02:35	62.3	62.3	62.3	56	46.4	5	11	248	0.00	29.917 
02:40	62.4	62.4	62.4	56	46.5	5	14	248	0.00	29.917 
02:45	62.4	62.4	62.4	56	46.5	5	15	248	0.00	29.910 
02:50	62.4	62.4	62.4	56	46.5	5	14	248	0.00	29.910 
02:55	62.4	62.4	62.4	56	46.5	4	10	248	0.00	29.910 
03:00	62.3	62.3	62.3	56	46.4	5	10	248	0.00	29.905 
03:05	62.4	62.4	62.4	56	46.5	6	18	248	0.00	29.905 
03:10	62.6	62.6	62.6	56	46.7	5	14	270	0.00	29.905 
03:15	62.4	62.4	62.4	56	46.5	5	12	248	0.00	29.901 
03:20	62.4	62.4	62.4	56	46.5	5	13	248	0.00	29.901 
03:25	62.6	62.6	62.6	56	46.7	6	19	248	0.00	29.901 
03:30	62.7	62.7	62.7	56	46.8	6	13	248	0.00	29.900 
03:35	62.7	62.7	62.7	56	46.8	6	12	248	0.00	29.900 
03:40	62.6	62.6	62.6	56	46.7	5	12	248	0.00	29.900 
03:45	62.7	62.7	62.7	56	46.8	6	14	248	0.00	29.894 
03:50	62.7	62.7	62.7	57	47.2	4	11	248	0.00	29.894 
03:55	62.9	62.9	62.9	56	47.0	7	14	248	0.00	29.894 
04:00	62.9	62.9	62.9	57	47.4	5	12	270	0.00	29.887 
04:05	62.7	62.7	62.7	57	47.2	5	12	270	0.00	29.887 
04:10	62.7	62.7	62.7	57	47.2	5	13	248	0.00	29.887 
04:15	62.9	62.9	62.9	57	47.4	6	14	248	0.00	29.891 
04:20	62.9	62.9	62.9	57	47.4	6	12	270	0.00	29.891 
04:25	62.9	62.9	62.9	57	47.4	6	20	248	0.00	29.891 
04:30	62.9	62.9	62.9	57	47.4	5	13	248	0.00	29.892 
04:35	62.9	62.9	62.9	58	47.9	6	12	248	0.00	29.892 
04:40	62.9	62.9	62.9	58	47.9	5	14	248	0.00	29.892 
04:45	63.1	63.1	63.1	58	48.1	6	14	248	0.00	29.890 
04:50	63.1	63.1	63.1	58	48.1	5	13	248	0.00	29.890 
04:55	62.9	62.9	62.9	58	47.9	6	12	248	0.00	29.890 
05:00	63.1	63.1	63.1	58	48.1	5	11	248	0.00	29.888 
05:05	63.1	63.1	63.1	58	48.1	6	12	248	0.00	29.888 
05:10	63.2	63.2	63.2	58	48.2	7	15	248	0.00	29.888 
05:15	63.2	63.2	63.2	58	48.2	5	15	248	0.00	29.879 
05:20	63.2	63.2	63.2	58	48.2	6	14	248	0.00	29.879 
05:25	63.4	63.4	63.4	58	48.4	7	15	248	0.00	29.879 
05:30	63.4	63.4	63.4	58	48.4	6	15	248	0.00	29.874 
05:35	63.4	63.4	63.4	58	48.4	6	16	270	0.00	29.874 
05:40	63.4	63.4	63.4	58	48.4	5	13	248	0.00	29.874 
05:45	63.2	63.2	63.2	59	48.6	6	23	248	0.00	29.866 
05:50	63.2	63.2	63.2	59	48.6	6	23	248	0.00	29.866 
05:55	63.2	63.2	63.2	59	48.6	5	11	248	0.00	29.866 
06:00	63.2	63.2	63.2	59	48.6	5	14	248	0.00	29.860 
06:05	63.2	63.2	63.2	59	48.6	5	13	248	0.00	29.860 
06:10	63.2	63.2	63.2	60	49.1	5	11	248	0.00	29.860 
06:15	63.1	63.1	63.1	60	49.0	5	16	248	0.00	29.861 
06:20	63.1	63.1	63.1	60	49.0	6	14	248	0.00	29.861 
06:25	63.1	63.1	63.1	60	49.0	5	13	248	0.00	29.861 
06:30	63.1	63.1	63.1	60	49.0	5	14	248	0.00	29.854 
06:35	63.1	63.1	63.1	60	49.0	5	17	248	0.00	29.854 
06:40	63.1	63.1	63.1	60	49.0	5	10	248	0.00	29.854 
06:45	63.2	63.2	63.2	60	49.1	6	18	248	0.00	29.846 
06:50	63.2	63.2	63.2	60	49.1	5	12	248	0.00	29.846 
06:55	63.4	63.4	63.4	59	48.8	6	16	248	0.00	29.846 
07:00	63.5	63.5	63.5	59	48.9	6	16	248	0.00	29.849 
07:05	63.9	63.9	63.9	59	49.3	6	12	248	0.00	29.849 
07:10	64.0	64.0	64.0	58	48.9	7	14	248	0.00	29.849 
07:15	64.0	64.0	64.0	59	49.4	5	12	248	0.00	29.871 
07:20	64.2	64.2	64.2	59	49.6	8	16	270	0.00	29.871 
07:25	64.3	64.3	64.3	59	49.7	7	13	270	0.00	29.871 
07:30	64.2	64.2	64.2	61	50.5	7	13	248	0.00	29.892 
07:35	63.4	63.4	63.4	65	51.4	7	17	270	0.00	29.892 
07:40	62.0	62.0	62.0	72	52.9	6	12	270	0.03	29.892 
07:45	60.4	60.4	60.4	77	53.2	6	12	270	0.02	29.906 
07:50	59.8	59.8	59.8	79	53.3	7	15	248	0.01	29.906 
07:55	59.5	59.5	59.5	80	53.3	6	16	248	0.02	29.906 
08:00	59.0	59.0	59.0	82	53.5	5	13	248	0.02	29.905 
08:05	58.7	58.7	58.7	83	53.5	5	14	248	0.00	29.905 
08:10	58.6	58.6	58.6	84	53.8	5	11	248	0.00	29.905 
08:15	58.6	58.6	58.6	84	53.8	5	13	248	0.00	29.895 
08:20	58.7	58.7	58.7	83	53.5	5	10	248	0.00	29.895 
08:25	58.7	58.7	58.7	83	53.5	4	11	248	0.00	29.895 
08:30	58.9	58.9	58.9	83	53.7	5	14	248	0.02	29.891 
08:35	58.4	58.4	58.4	85	53.9	5	12	248	0.02	29.891 
08:40	58.3	58.3	58.3	86	54.1	5	12	248	0.00	29.891 
08:45	58.3	58.3	58.3	86	54.1	6	15	248	0.01	29.884 
08:50	58.6	58.6	58.6	85	54.1	7	18	248	0.00	29.884 
08:55	59.0	59.0	59.0	84	54.2	5	18	248	0.00	29.884 
09:00	59.5	59.5	59.5	83	54.3	7	16	248	0.00	29.882 
09:05	60.2	60.2	60.2	81	54.3	7	16	248	0.00	29.882 
09:10	60.7	60.7	60.7	79	54.1	7	14	248	0.00	29.882 
09:15	60.9	60.9	60.9	78	54.0	6	16	248	0.00	29.886 
09:20	60.9	60.9	60.9	79	54.3	6	14	270	0.00	29.886 
09:25	61.0	61.0	61.0	78	54.1	5	12	270	0.00	29.886 
09:30	61.2	61.2	61.2	78	54.3	5	14	270	0.00	29.886 
09:35	61.2	61.2	61.2	78	54.3	6	16	270	0.00	29.886 
09:40	61.3	61.3	61.3	78	54.4	8	20	248	0.00	29.886 
09:45	61.8	61.8	61.8	77	54.5	6	17	248	0.00	29.886 
09:50	62.4	62.4	62.4	77	55.1	7	20	248	0.00	29.886 
09:55	62.6	62.6	62.6	75	54.6	7	15	270	0.00	29.886 
10:00	62.4	62.4	62.4	75	54.4	6	13	248	0.00	29.895 
10:05	62.6	62.6	62.6	75	54.6	7	15	270	0.00	29.895 
10:10	62.6	62.6	62.6	75	54.6	7	16	270	0.00	29.895 
10:15	62.9	62.9	62.9	74	54.5	8	16	270	0.00	29.897 
10:20	62.9	62.9	62.9	75	54.8	6	15	270	0.00	29.897 
10:25	62.9	62.9	62.9	75	54.8	8	18	270	0.00	29.897 
10:30	62.9	62.9	62.9	75	54.8	6	14	248	0.00	29.902 
10:35	62.9	62.9	62.9	75	54.8	5	12	270	0.00	29.902 
10:40	62.9	62.9	62.9	75	54.8	6	20	270	0.00	29.902 
10:45	62.7	62.7	62.7	76	55.0	6	15	270	0.00	29.903 
10:50	62.6	62.6	62.6	76	54.9	7	14	270	0.00	29.903 
10:55	62.4	62.4	62.4	76	54.7	6	15	270	0.00	29.903 
11:00	62.3	62.3	62.3	77	55.0	5	12	270	0.00	29.913 
11:05	62.1	62.1	62.1	77	54.8	8	16	248	0.00	29.913 
11:10	62.1	62.1	62.1	77	54.8	7	14	270	0.00	29.913 
11:15	62.0	62.0	62.0	78	55.1	7	14	270	0.00	29.918 
11:20	62.0	62.0	62.0	78	55.1	6	12	270	0.00	29.918 
11:25	62.0	62.0	62.0	78	55.1	6	11	270	0.00	29.918 
11:30	61.6	61.6	61.6	80	55.4	6	12	270	0.00	29.925 
11:35	61.3	61.3	61.3	82	55.8	6	18	248	0.00	29.925 
11:40	61.0	61.0	61.0	83	55.8	6	16	270	0.00	29.925 
11:45	61.0	61.0	61.0	84	56.1	6	15	248	0.00	29.930 
11:50	61.0	61.0	61.0	84	56.1	6	12	270	0.00	29.930 
11:55	60.9	60.9	60.9	85	56.4	7	16	248	0.00	29.930 
12:00	60.7	60.7	60.7	85	56.2	8	17	270	0.00	29.933 
12:05	60.7	60.7	60.7	85	56.2	7	15	270	0.00	29.933 
12:10	60.7	60.7	60.7	85	56.2	8	17	270	0.00	29.933 
12:15	60.7	60.7	60.7	86	56.5	5	12	270	0.00	29.939 
12:20	60.5	60.5	60.5	87	56.6	6	14	270	0.00	29.939 
12:25	60.2	60.2	60.2	88	56.6	7	19	248	0.00	29.939 
12:30	60.1	60.1	60.1	89	56.8	4	12	270	0.00	29.946 
12:35	59.9	59.9	59.9	90	57.0	4	10	270	0.00	29.946 
12:40	59.9	59.9	59.9	91	57.3	4	11	248	0.00	29.946 
12:45	59.9	59.9	59.9	92	57.6	6	12	248	0.00	29.945 
12:50	59.9	59.9	59.9	91	57.3	5	11	270	0.00	29.945 
12:55	59.9	59.9	59.9	91	57.3	4	13	248	0.00	29.945 
13:00	60.1	60.1	60.1	91	57.5	5	12	248	0.00	29.943 
13:05	60.2	60.2	60.2	91	57.6	6	13	270	0.00	29.943 
13:10	61.0	61.0	61.0	92	58.7	4	12	248	0.00	29.943 
13:15	61.6	61.6	61.6	90	58.6	5	12	248	0.00	29.934 
13:20	61.6	61.6	61.6	88	58.0	5	11	248	0.00	29.934 
13:25	61.5	61.5	61.5	88	57.9	4	11	270	0.00	29.934 
13:30	61.8	61.8	61.8	87	57.9	4	12	270	0.00	29.928 
13:35	61.8	61.8	61.8	86	57.6	5	12	248	0.00	29.928 
13:40	61.8	61.8	61.8	86	57.6	5	17	248	0.00	29.928 
13:45	61.6	61.6	61.6	85	57.0	4	13	270	0.00	29.931 
13:50	61.5	61.5	61.5	85	56.9	4	7	270	0.00	29.931 
13:55	61.0	61.0	61.0	82	55.5	3	7	270	0.00	29.931 
14:00	60.4	60.4	60.4	80	54.2	3	6	270	0.00	29.943 
14:05	60.1	60.1	60.1	80	53.9	3	7	270	0.00	29.943 
14:10	60.1	60.1	60.1	81	54.2	2	6	270	0.00	29.943 
14:15	60.1	60.1	60.1	77	52.9	3	10	270	0.00	29.945 
14:20	60.1	60.1	60.1	75	52.1	3	10	292	0.00	29.945 
14:25	60.2	60.2	60.2	74	51.9	3	7	270	0.00	29.945 
14:30	60.5	60.5	60.5	74	52.2	3	9	315	0.00	29.947 
14:35	60.9	60.9	60.9	75	52.9	2	5	270	0.00	29.947 
14:40	60.9	60.9	60.9	73	52.2	3	6	270	0.00	29.947 
14:45	60.4	60.4	60.4	74	52.1	3	7	270	0.00	29.955 
14:50	59.9	59.9	59.9	72	50.8	3	5	338	0.00	29.955 
14:55	60.1	60.1	60.1	72	51.0	2	4	338	0.00	29.955 
15:00	60.5	60.5	60.5	71	51.0	1	4	270	0.00	29.958 
15:05	60.7	60.7	60.7	69	50.5	3	7	292	0.00	29.958 
15:10	61.0	61.0	61.0	67	50.0	3	6	270	0.00	29.958 
15:15	61.5	61.5	61.5	63	48.8	3	7	270	0.00	29.958 
15:20	62.0	62.0	62.0	64	49.7	3	5	270	0.00	29.958 
15:25	61.6	61.6	61.6	63	48.9	3	7	292	0.00	29.959 
15:30	61.6	61.6	61.6	65	49.7	3	6	338	0.00	29.957 
15:35	62.1	62.1	62.1	65	50.2	2	5	315	0.00	29.955 
15:40	62.6	62.6	62.6	66	51.1	3	9	270	0.00	29.954 
15:45	62.4	62.4	62.4	65	50.5	3	6	270	0.00	29.955 
15:50	62.0	62.0	62.0	65	50.1	3	6	270	0.00	29.957 
15:55	61.8	61.8	61.8	65	49.9	3	6	270	0.00	29.957 
16:00	61.5	61.5	61.5	67	50.4	3	6	270	0.00	29.958 
16:05	61.3	61.3	61.3	67	50.2	2	6	248	0.00	29.959 
16:10	61.5	61.5	61.5	67	50.4	3	6	270	0.00	29.960 
16:15	62.3	62.3	62.3	66	50.8	2	4	270	0.00	29.959 
16:20	62.4	62.4	62.4	65	50.5	3	9	270	0.00	29.959 
16:25	62.0	62.0	62.0	66	50.5	2	5	248	0.00	29.960 
16:30	61.6	61.6	61.6	66	50.1	2	6	248	0.00	29.959 
16:35	61.5	61.5	61.5	68	50.8	2	5	248	0.00	29.959 
16:40	61.6	61.6	61.6	67	50.5	1	4	248	0.00	29.960 
16:45	62.0	62.0	62.0	66	50.5	3	8	270	0.00	29.959 
16:50	62.1	62.1	62.1	67	51.0	2	5	270	0.00	29.960 
16:55	62.3	62.3	62.3	66	50.8	1	4	248	0.00	29.960 
17:00	62.6	62.6	62.6	65	50.7	2	5	270	0.00	29.959 
17:05	62.9	62.9	62.9	65	50.9	2	4	248	0.00	29.961 
17:10	63.2	63.2	63.2	65	51.2	3	7	270	0.00	29.964 
17:15	63.2	63.2	63.2	63	50.4	4	11	270	0.00	29.968 
17:20	63.1	63.1	63.1	64	50.7	4	10	248	0.00	29.972 
17:25	62.9	62.9	62.9	64	50.5	3	10	248	0.00	29.971 
17:30	62.7	62.7	62.7	64	50.3	3	7	270	0.00	29.972 
17:35	62.6	62.6	62.6	65	50.7	4	11	270	0.00	29.973 
17:40	62.4	62.4	62.4	65	50.5	3	6	270	0.00	29.975 
17:45	62.3	62.3	62.3	66	50.8	2	6	248	0.00	29.975 
17:50	62.3	62.3	62.3	66	50.8	2	5	248	0.00	29.976 
17:55	62.1	62.1	62.1	65	50.2	3	8	270	0.00	29.977 
18:00	62.0	62.0	62.0	66	50.5	2	9	248	0.00	29.980 
18:05	61.8	61.8	61.8	67	50.7	2	6	248	0.00	29.980 
18:10	61.6	61.6	61.6	68	50.9	2	6	248	0.00	29.982 
18:15	61.5	61.5	61.5	68	50.8	1	4	248	0.00	29.984 
18:20	61.3	61.3	61.3	69	51.0	1	3	248	0.00	29.990 
18:25	61.2	61.2	61.2	69	50.9	1	3	225	0.00	29.990 
18:30	60.9	60.9	60.9	70	51.0	0	1	225	0.00	29.991 
18:35	60.5	60.5	60.5	70	50.7	0	0	---	0.00	29.993 
18:40	60.2	60.2	60.2	70	50.4	0	0	---	0.00	29.995 
18:45	59.9	59.9	59.9	70	50.1	0	1	225	0.00	29.998 
18:50	59.6	59.6	59.6	68	49.0	0	0	---	0.00	30.003 
18:55	59.5	59.5	59.5	67	48.5	0	0	---	0.00	30.006 
19:00	59.3	59.3	59.3	67	48.3	0	0	---	0.00	30.009 
19:05	59.2	59.2	59.2	66	47.8	0	0	---	0.00	30.015 
19:10	59.0	59.0	59.0	65	47.2	0	1	225	0.00	30.023 
19:15	59.0	59.0	59.0	64	46.8	0	1	225	0.00	30.025 
19:20	58.9	58.9	58.9	63	46.3	0	1	225	0.00	30.023 
19:25	58.7	58.7	58.7	63	46.1	0	1	225	0.00	30.025 
19:30	58.3	58.3	58.3	63	45.8	0	0	---	0.00	30.029 
19:35	58.0	58.0	58.0	63	45.5	0	1	225	0.00	30.032 
19:40	57.6	57.6	57.6	62	44.7	0	1	225	0.00	30.033 
19:45	57.5	57.5	57.5	63	45.0	0	1	225	0.00	30.035 
19:50	57.2	57.2	57.2	63	44.7	0	0	---	0.00	30.034 
19:55	56.7	56.7	56.7	64	44.7	0	0	---	0.00	30.034 
20:00	56.5	56.5	56.5	64	44.5	0	1	225	0.00	30.037 
20:05	56.2	56.2	56.2	65	44.6	0	1	225	0.00	30.040 
20:10	55.9	55.9	55.9	65	44.3	0	1	225	0.00	30.043 
20:15	55.7	55.7	55.7	66	44.5	0	1	225	0.00	30.046 
20:20	55.6	55.6	55.6	66	44.4	0	1	225	0.00	30.046 
20:25	55.4	55.4	55.4	66	44.2	0	0	---	0.00	30.047 
20:30	55.3	55.3	55.3	66	44.1	0	1	225	0.00	30.050 
20:35	55.1	55.1	55.1	65	43.5	0	1	225	0.00	30.052 
20:40	55.1	55.1	55.1	65	43.5	0	1	225	0.00	30.058 
20:45	55.0	55.0	55.0	66	43.9	0	0	---	0.00	30.061 
20:50	54.8	54.8	54.8	66	43.7	0	0	---	0.00	30.062 
20:55	54.7	54.7	54.7	66	43.6	0	0	---	0.00	30.063 
21:00	54.5	54.5	54.5	67	43.8	0	0	---	0.00	30.064 
21:05	54.2	54.2	54.2	67	43.5	0	0	---	0.00	30.061 
21:10	54.1	54.1	54.1	68	43.8	0	0	---	0.00	30.062 
21:15	53.8	53.8	53.8	69	43.9	0	0	---	0.00	30.062 
21:20	53.5	53.5	53.5	69	43.6	0	0	---	0.00	30.061 
21:25	53.2	53.2	53.2	69	43.3	0	1	225	0.00	30.061 
21:30	52.8	52.8	52.8	68	42.5	0	0	---	0.00	30.060 
21:35	52.5	52.5	52.5	67	41.9	0	1	225	0.00	30.062 
21:40	52.5	52.5	52.5	65	41.1	0	2	225	0.00	30.063 
21:45	52.5	52.5	52.5	64	40.7	0	1	225	0.00	30.062 
21:50	52.5	52.5	52.5	64	40.7	0	1	225	0.00	30.060 
21:55	52.3	52.3	52.3	65	40.9	0	0	---	0.00	30.065 
22:00	52.0	52.0	52.0	64	40.2	0	3	0	0.00	30.068 
22:05	52.0	52.0	52.0	62	39.4	0	2	0	0.00	30.065 
22:10	51.9	51.9	51.9	62	39.3	0	1	0	0.00	30.064 
22:15	51.7	51.7	51.7	62	39.1	0	1	0	0.00	30.066 
22:20	51.7	51.7	51.7	63	39.5	0	1	0	0.00	30.066 
22:25	51.7	51.7	51.7	62	39.1	0	1	0	0.00	30.065 
22:30	51.6	51.6	51.6	63	39.4	0	1	0	0.00	30.064 
22:35	51.4	51.4	51.4	63	39.2	0	1	0	0.00	30.063 
22:40	51.4	51.4	51.4	63	39.2	0	1	0	0.00	30.067 
22:45	51.3	51.3	51.3	63	39.1	0	3	0	0.00	30.066 
22:50	51.1	51.1	51.1	63	38.9	0	2	68	0.00	30.065 
22:55	51.1	51.1	51.1	62	38.5	0	2	68	0.00	30.065 
23:00	51.0	51.0	51.0	63	38.9	0	1	68	0.00	30.064 
23:05	50.7	50.7	50.7	63	38.6	0	1	68	0.00	30.065 
23:10	50.5	50.5	50.5	64	38.8	0	1	68	0.00	30.066 
23:15	50.4	50.4	50.4	64	38.7	0	2	68	0.00	30.068 
23:20	50.4	50.4	50.4	64	38.7	0	1	68	0.00	30.067 
23:25	50.2	50.2	50.2	64	38.5	0	1	68	0.00	30.065 
23:30	50.2	50.2	50.2	64	38.5	0	2	68	0.00	30.063 
23:35	50.1	50.1	50.1	63	38.0	0	2	68	0.00	30.064 
23:40	50.1	50.1	50.1	64	38.4	0	0	---	0.00	30.065 
23:45	49.9	49.9	49.9	65	38.6	0	2	68	0.00	30.058 
23:50	49.9	49.9	49.9	67	39.4	0	1	68	0.00	30.062 
23:55	49.8	49.8	49.8	69	40.0	0	0	---	0.01	30.066 

CoCoRaHS
IN-AL-39
A2 Web Hosting
Creative Commons License
GoDaddy
Look for:

loaded 2017-10-18 22:19:34 • last modified 2010-11-18 10:43:29
Privacy PolicyDisclaimer
• wx.awcolley.com is powered by PmWiki v.2002016 •
• all content (unless otherwise noted) © 2017 A W Colley